Time;durP1;ratioP1;P1;durP2;ratioP2;P2;SDS_P1;SDS_P2;PMS_P1;PMS_P2;Temp;Humidity;BMP_temperature;BMP_pressure;BME280_temperature;BME280_humidity;BME280_pressure;Samples;Min_cycle;Max_cycle;Signal;HPM_P1;HPM_P2
2022/11/15 00:02:23;;;;;;;4.77;4.27;;;10.00;99.90;;;;;;5017133;28;20541;-59
2022/11/15 00:04:50;;;;;;;5.33;4.53;;;10.00;99.90;;;;;;5016721;28;20481;-60
2022/11/15 00:07:17;;;;;;;6.80;5.13;;;9.90;99.90;;;;;;5016416;28;20479;-61
2022/11/15 00:09:45;;;;;;;5.10;4.60;;;10.00;99.90;;;;;;5016576;28;20814;-60
2022/11/15 00:12:12;;;;;;;5.30;4.60;;;10.00;99.90;;;;;;5016977;28;20447;-59
2022/11/15 00:14:40;;;;;;;6.77;4.80;;;10.00;99.90;;;;;;5015978;28;21028;-60
2022/11/15 00:17:07;;;;;;;6.27;4.90;;;10.00;99.90;;;;;;5016416;28;20525;-60
2022/11/15 00:19:34;;;;;;;5.20;4.70;;;9.90;99.90;;;;;;5016088;28;20537;-61
2022/11/15 00:22:01;;;;;;;7.93;5.13;;;9.90;99.90;;;;;;5016317;28;20546;-60
2022/11/15 00:24:29;;;;;;;5.30;4.73;;;9.90;99.90;;;;;;5016194;28;20806;-61
2022/11/15 00:26:57;;;;;;;4.50;4.10;;;10.00;99.90;;;;;;5016243;28;20525;-60
2022/11/15 00:29:24;;;;;;;5.07;4.23;;;10.10;99.90;;;;;;5016205;28;20447;-61
2022/11/15 00:31:51;;;;;;;4.50;4.10;;;10.10;99.90;;;;;;5016114;28;20473;-60
2022/11/15 00:34:19;;;;;;;5.17;4.30;;;10.20;99.90;;;;;;5015791;28;20483;-60
2022/11/15 00:36:46;;;;;;;5.03;4.17;;;;;;;;;;5015747;28;20545;-61
2022/11/15 00:39:14;;;;;;;4.30;3.90;;;10.20;99.90;;;;;;5015728;28;20980;-61
2022/11/15 00:41:41;;;;;;;4.53;4.13;;;10.30;99.90;;;;;;5016212;28;20451;-60
2022/11/15 00:44:09;;;;;;;5.30;4.80;;;10.30;99.90;;;;;;5015582;28;20455;-61
2022/11/15 00:46:36;;;;;;;11.17;3.70;;;10.30;99.90;;;;;;5015508;28;20478;-61
2022/11/15 00:49:03;;;;;;;3.70;3.30;;;10.40;99.90;;;;;;5015814;28;20824;-61
2022/11/15 00:51:31;;;;;;;3.87;3.57;;;10.40;99.90;;;;;;5015782;28;20486;-61
2022/11/15 00:53:58;;;;;;;3.90;3.50;;;10.50;99.90;;;;;;5015691;28;20489;-61
2022/11/15 00:56:25;;;;;;;3.80;3.50;;;10.50;99.90;;;;;;5015652;28;20824;-60
2022/11/15 00:58:53;;;;;;;4.17;3.53;;;10.50;99.90;;;;;;5015676;28;20453;-61
2022/11/15 01:01:21;;;;;;;4.00;3.70;;;10.60;99.90;;;;;;5015334;28;20812;-61
2022/11/15 01:03:48;;;;;;;4.80;4.23;;;10.60;99.90;;;;;;5015155;28;20454;-61
2022/11/15 01:06:15;;;;;;;4.03;3.57;;;10.60;99.90;;;;;;5014331;28;20518;-61
2022/11/15 01:08:43;;;;;;;4.10;3.73;;;10.70;99.90;;;;;;5014700;28;20438;-61
2022/11/15 01:11:12;;;;;;;4.37;3.53;;;10.80;99.90;;;;;;5016235;28;20789;-61
2022/11/15 01:13:40;;;;;;;6.83;4.97;;;10.80;99.90;;;;;;5015342;28;20479;-61
2022/11/15 01:16:10;;;;;;;5.33;3.70;;;10.80;99.90;;;;;;5014987;28;20558;-61
2022/11/15 01:18:38;;;;;;;4.23;3.83;;;10.80;99.90;;;;;;5015266;28;20455;-60
2022/11/15 01:21:07;;;;;;;5.63;4.20;;;10.60;99.90;;;;;;5014962;28;20546;-61
2022/11/15 01:23:34;;;;;;;3.83;3.53;;;10.40;99.90;;;;;;5015168;28;20449;-61
2022/11/15 01:26:02;;;;;;;3.63;3.33;;;10.40;99.90;;;;;;5015106;28;20836;-61
2022/11/15 01:28:32;;;;;;;4.30;3.73;;;10.30;99.90;;;;;;5015121;28;20542;-61
2022/11/15 01:31:00;;;;;;;4.00;3.60;;;10.20;99.90;;;;;;5015008;28;20459;-61
2022/11/15 01:33:28;;;;;;;4.57;4.17;;;10.10;99.90;;;;;;5014650;28;20479;-60
2022/11/15 01:35:57;;;;;;;4.30;3.93;;;10.00;99.90;;;;;;5014570;28;20533;-61
2022/11/15 01:38:24;;;;;;;5.87;3.90;;;9.90;99.90;;;;;;5014637;28;20447;-61
2022/11/15 01:40:51;;;;;;;3.70;3.40;;;9.80;99.90;;;;;;5014611;28;20937;-61
2022/11/15 01:43:27;;;;;;;4.03;3.57;;;9.80;99.90;;;;;;5014525;28;20454;-61
2022/11/15 01:46:00;;;;;;;4.93;3.53;;;9.60;99.90;;;;;;5014440;28;20477;-61
2022/11/15 01:48:32;;;;;;;4.03;3.67;;;9.60;99.90;;;;;;5014819;28;20432;-61
2022/11/15 01:51:05;;;;;;;5.83;4.10;;;9.40;99.90;;;;;;5014802;28;20519;-61
2022/11/15 01:53:34;;;;;;;4.10;3.80;;;9.50;99.90;;;;;;5015188;28;20494;-61
2022/11/15 01:56:04;;;;;;;5.50;4.60;;;9.40;99.90;;;;;;5014238;28;20993;-61
2022/11/15 01:58:36;;;;;;;11.27;4.60;;;9.40;99.90;;;;;;5014661;28;20445;-61
2022/11/15 02:01:03;;;;;;;4.57;4.27;;;9.40;99.90;;;;;;5014238;28;20451;-61
2022/11/15 02:03:37;;;;;;;5.67;4.30;;;9.40;99.90;;;;;;5014602;28;20454;-61
2022/11/15 02:06:06;;;;;;;4.10;3.70;;;9.30;99.90;;;;;;5014438;28;20479;-60
2022/11/15 02:08:33;;;;;;;4.17;3.87;;;9.30;99.90;;;;;;5014726;28;20432;-60
2022/11/15 02:11:01;;;;;;;5.80;4.10;;;9.30;99.90;;;;;;5014386;28;20866;-61
2022/11/15 02:13:28;;;;;;;5.13;4.60;;;9.30;99.90;;;;;;5014286;28;20451;-61
2022/11/15 02:16:04;;;;;;;4.50;4.10;;;9.30;99.90;;;;;;5014224;28;20478;-61
2022/11/15 02:18:36;;;;;;;4.47;3.90;;;9.40;99.90;;;;;;5013978;28;20442;-61
2022/11/15 02:21:19;;;;;;;4.53;3.67;;;9.30;99.90;;;;;;5014244;28;20526;-61
2022/11/15 02:24:36;;;;;;;4.13;3.73;;;9.40;99.90;;;;;;5013956;28;20527;-61
2022/11/15 02:27:39;;;;;;;5.10;4.60;;;9.30;99.90;;;;;;5014319;28;20502;-61
2022/11/15 02:30:28;;;;;;;4.57;4.13;;;9.20;99.90;;;;;;4971189;28;20968;-61
2022/11/15 02:33:01;;;;;;;3.87;3.57;;;9.20;99.90;;;;;;5014977;28;20852;-61
2022/11/15 02:35:38;;;;;;;7.00;4.40;;;9.20;99.90;;;;;;5013721;28;20491;-60
2022/11/15 02:38:10;;;;;;;6.60;3.80;;;9.20;99.90;;;;;;5014137;28;20534;-61
2022/11/15 02:40:43;;;;;;;6.77;4.10;;;9.30;99.90;;;;;;5014084;28;20518;-61
2022/11/15 02:46:05;;;;;;;6.70;3.90;;;9.30;99.90;;;;;;5013867;28;20975;-61
2022/11/15 02:48:34;;;;;;;4.00;3.60;;;9.40;99.90;;;;;;5014064;28;20434;-61
2022/11/15 02:51:02;;;;;;;4.57;3.60;;;9.30;99.90;;;;;;5013656;28;20537;-61
2022/11/15 02:53:29;;;;;;;7.60;3.73;;;9.30;99.90;;;;;;5013913;28;20447;-61
2022/11/15 02:55:58;;;;;;;4.00;3.53;;;9.30;99.90;;;;;;5013874;28;20471;-61
2022/11/15 02:58:59;;;;;;;4.97;3.70;;;9.30;99.90;;;;;;5013891;28;20446;-61
2022/11/15 03:01:39;;;;;;;4.77;4.23;;;9.30;99.90;;;;;;4967493;28;20463;-60
2022/11/15 03:04:16;;;;;;;4.03;3.73;;;9.30;99.90;;;;;;5013664;28;20455;-60
2022/11/15 03:06:53;;;;;;;4.70;4.23;;;9.40;99.90;;;;;;5013501;28;20565;-61
2022/11/15 03:09:29;;;;;;;9.87;4.80;;;9.40;99.90;;;;;;5013838;28;20431;-61
2022/11/15 03:12:04;;;;;;;3.90;3.50;;;9.30;99.90;;;;;;5013517;28;20431;-61
2022/11/15 03:14:36;;;;;;;4.80;3.93;;;9.30;99.90;;;;;;5013285;28;20994;-61
2022/11/15 03:17:13;;;;;;;4.70;3.70;;;9.20;99.90;;;;;;5013748;28;20464;-61
2022/11/15 03:19:45;;;;;;;3.97;3.57;;;9.30;99.90;;;;;;5013716;28;20443;-60
2022/11/15 03:22:16;;;;;;;6.17;4.07;;;9.30;99.90;;;;;;5014551;28;20738;-61
2022/11/15 03:24:44;;;;;;;4.47;4.07;;;9.20;99.90;;;;;;5013558;28;20463;-61
2022/11/15 03:27:15;;;;;;;4.63;4.23;;;9.10;99.90;;;;;;5013343;28;20453;-61
2022/11/15 03:29:47;;;;;;;4.23;3.73;;;9.10;99.90;;;;;;5013650;28;20873;-61
2022/11/15 03:32:22;;;;;;;3.97;3.67;;;9.10;99.90;;;;;;5015694;28;20841;-61
2022/11/15 03:34:54;;;;;;;5.73;3.70;;;9.10;99.90;;;;;;5017171;28;20490;-61
2022/11/15 03:37:25;;;;;;;3.63;3.33;;;9.10;99.90;;;;;;5017262;28;20453;-61
2022/11/15 03:39:53;;;;;;;4.00;3.40;;;9.00;99.90;;;;;;5017163;28;20435;-61
2022/11/15 03:42:25;;;;;;;5.23;3.20;;;9.00;99.90;;;;;;5016829;28;20457;-61
2022/11/15 03:44:58;;;;;;;4.13;3.73;;;9.00;99.90;;;;;;5016740;28;20470;-61
2022/11/15 03:47:33;;;;;;;4.83;4.03;;;9.00;99.90;;;;;;5017117;28;20450;-61
2022/11/15 03:50:04;;;;;;;4.63;3.23;;;9.00;99.90;;;;;;5016993;28;20788;-61
2022/11/15 03:52:34;;;;;;;4.20;3.60;;;8.90;99.90;;;;;;5016970;28;20430;-61
2022/11/15 03:55:03;;;;;;;10.13;3.93;;;8.90;99.90;;;;;;5016544;28;20487;-61
2022/11/15 03:57:31;;;;;;;4.17;3.73;;;8.90;99.90;;;;;;5016898;28;20455;-61
2022/11/15 03:59:58;;;;;;;3.87;3.47;;;8.90;99.90;;;;;;5016950;28;20447;-61
2022/11/15 04:02:28;;;;;;;3.73;3.37;;;8.90;99.90;;;;;;5016519;28;20459;-61
2022/11/15 04:04:55;;;;;;;6.07;4.27;;;9.00;99.90;;;;;;5016504;28;20479;-61
2022/11/15 04:07:22;;;;;;;4.03;3.73;;;9.10;99.90;;;;;;5016248;28;20478;-61
2022/11/15 04:10:05;;;;;;;6.40;3.70;;;9.10;99.90;;;;;;5016615;28;20843;-61
2022/11/15 04:12:33;;;;;;;4.00;3.40;;;9.00;99.90;;;;;;5016728;28;20906;-62
2022/11/15 04:15:10;;;;;;;4.73;3.70;;;9.00;99.90;;;;;;5016055;28;20997;-61
2022/11/15 04:17:41;;;;;;;5.67;3.77;;;9.00;99.90;;;;;;5016519;28;20435;-61
2022/11/15 04:25:41;;;;;;;5.10;4.60;;;9.00;99.90;;;;;;5016074;28;20446;-61
2022/11/15 04:28:08;;;;;;;5.20;3.60;;;9.10;99.90;;;;;;5016254;28;20446;-60
2022/11/15 04:30:35;;;;;;;3.47;3.17;;;9.10;99.90;;;;;;5015965;28;20447;-60
2022/11/15 04:33:04;;;;;;;4.70;4.30;;;9.10;99.90;;;;;;5016204;28;20450;-61
2022/11/15 04:35:31;;;;;;;4.40;3.70;;;9.10;99.90;;;;;;5015790;28;20857;-61
2022/11/15 04:37:59;;;;;;;5.00;3.37;;;9.10;99.90;;;;;;5016123;28;20457;-60
2022/11/15 04:40:26;;;;;;;5.03;3.50;;;9.10;99.90;;;;;;5016092;28;20447;-61
2022/11/15 04:42:53;;;;;;;3.90;3.60;;;9.10;99.90;;;;;;5014781;28;20454;-60
2022/11/15 04:45:20;;;;;;;5.10;3.43;;;9.00;99.90;;;;;;5015857;28;20463;-60
2022/11/15 04:47:48;;;;;;;4.30;3.53;;;9.10;99.90;;;;;;5015636;28;20812;-60
2022/11/15 04:50:17;;;;;;;5.63;3.50;;;9.10;99.90;;;;;;5015860;28;20873;-61
2022/11/15 04:52:50;;;;;;;4.10;3.80;;;9.00;99.90;;;;;;5015520;28;20930;-60
2022/11/15 04:55:17;;;;;;;4.47;3.33;;;9.00;99.90;;;;;;5015369;28;20569;-60
2022/11/15 04:57:44;;;;;;;4.17;3.27;;;9.00;99.90;;;;;;5015430;28;20450;-60
2022/11/15 05:00:14;;;;;;;4.30;3.90;;;9.00;99.90;;;;;;5015384;28;20453;-60
2022/11/15 05:05:27;;;;;;;4.00;3.53;;;8.90;99.90;;;;;;5015711;28;20516;-61
2022/11/15 05:07:54;;;;;;;3.83;3.43;;;8.80;99.90;;;;;;5015383;28;20856;-61
2022/11/15 05:10:21;;;;;;;4.20;3.80;;;8.80;99.90;;;;;;5015164;28;20942;-61
2022/11/15 05:12:49;;;;;;;5.27;3.30;;;8.80;99.90;;;;;;5015443;28;20454;-60
2022/11/15 05:15:16;;;;;;;4.63;3.30;;;8.80;99.90;;;;;;5014971;28;20985;-60
2022/11/15 05:17:43;;;;;;;3.90;3.30;;;8.70;99.90;;;;;;5015526;28;20454;-60
2022/11/15 05:20:11;;;;;;;4.27;3.40;;;8.80;99.90;;;;;;5014967;28;20447;-61
2022/11/15 05:22:40;;;;;;;5.83;3.30;;;8.80;99.90;;;;;;5015267;28;20461;-60
2022/11/15 05:25:08;;;;;;;3.33;3.03;;;8.80;99.90;;;;;;5014858;28;20473;-61
2022/11/15 05:27:35;;;;;;;4.80;3.80;;;8.80;99.90;;;;;;5014883;28;20934;-60
2022/11/15 05:30:03;;;;;;;5.10;3.60;;;8.80;99.90;;;;;;5015085;28;20473;-60
2022/11/15 05:32:30;;;;;;;4.70;3.73;;;8.80;99.90;;;;;;5015029;28;20482;-60
2022/11/15 05:34:57;;;;;;;3.67;3.37;;;8.80;99.90;;;;;;5014442;28;20488;-60
2022/11/15 05:37:24;;;;;;;4.27;3.87;;;8.70;99.90;;;;;;5014630;28;20861;-60
2022/11/15 05:39:53;;;;;;;4.97;4.10;;;8.70;99.90;;;;;;5014831;28;20455;-60
2022/11/15 05:42:20;;;;;;;3.77;3.47;;;8.70;99.90;;;;;;5014493;28;20953;-60
2022/11/15 05:44:49;;;;;;;4.03;3.70;;;8.80;99.90;;;;;;5014374;28;20474;-60
2022/11/15 05:47:28;;;;;;;5.60;3.60;;;8.80;99.90;;;;;;5014807;28;20463;-60
2022/11/15 05:49:57;;;;;;;4.50;3.87;;;8.80;99.90;;;;;;5014453;28;20562;-61
2022/11/15 05:52:29;;;;;;;5.50;4.60;;;8.90;99.90;;;;;;5014322;28;20487;-60
2022/11/15 05:54:59;;;;;;;5.80;3.50;;;8.90;99.90;;;;;;5013866;28;20485;-61
2022/11/15 05:57:26;;;;;;;4.50;3.63;;;8.90;99.90;;;;;;5014277;28;20457;-60
2022/11/15 05:59:54;;;;;;;3.97;3.67;;;8.90;99.90;;;;;;5014502;28;20454;-60
2022/11/15 06:02:21;;;;;;;8.90;3.73;;;8.90;99.90;;;;;;5014486;28;20475;-61
2022/11/15 06:04:48;;;;;;;4.67;3.50;;;8.90;99.90;;;;;;5014009;28;20475;-61
2022/11/15 06:07:16;;;;;;;6.20;3.30;;;8.80;99.90;;;;;;5014029;28;20481;-60
2022/11/15 06:09:43;;;;;;;4.53;4.07;;;8.80;99.90;;;;;;5014071;28;20462;-61
2022/11/15 06:12:11;;;;;;;6.77;4.00;;;8.90;99.90;;;;;;5013985;28;20533;-61
2022/11/15 06:14:39;;;;;;;3.83;3.50;;;8.90;99.90;;;;;;5013413;28;20561;-60
2022/11/15 06:17:06;;;;;;;5.83;5.00;;;9.00;99.90;;;;;;5014180;28;20455;-60
2022/11/15 06:19:33;;;;;;;5.40;4.40;;;9.00;99.90;;;;;;5014557;28;21001;-60
2022/11/15 06:22:00;;;;;;;4.67;4.10;;;9.00;99.90;;;;;;5014032;28;20451;-60
2022/11/15 06:24:27;;;;;;;6.50;5.67;;;9.00;99.90;;;;;;5013193;28;20537;-60
2022/11/15 06:26:55;;;;;;;6.43;5.80;;;8.90;99.90;;;;;;5013823;28;21009;-60
2022/11/15 06:29:23;;;;;;;9.03;7.10;;;8.90;99.90;;;;;;5013997;28;20459;-60
2022/11/15 06:31:50;;;;;;;11.93;8.17;;;8.80;99.90;;;;;;5013803;28;20782;-60
2022/11/15 06:34:18;;;;;;;11.67;9.00;;;8.80;99.90;;;;;;5013711;28;20486;-60
2022/11/15 06:36:45;;;;;;;10.40;8.30;;;8.80;99.90;;;;;;5013348;28;20478;-60
2022/11/15 06:39:12;;;;;;;8.50;5.60;;;8.90;99.90;;;;;;5013761;28;20550;-60
2022/11/15 06:41:39;;;;;;;8.33;6.03;;;8.90;99.90;;;;;;5013784;28;20525;-60
2022/11/15 06:44:06;;;;;;;8.40;5.87;;;8.90;99.90;;;;;;5013285;28;21009;-60
2022/11/15 06:46:36;;;;;;;4.93;4.23;;;8.80;99.90;;;;;;5014418;28;20474;-60
2022/11/15 06:49:03;;;;;;;5.00;4.57;;;8.90;99.90;;;;;;5013267;28;20953;-60
2022/11/15 06:51:30;;;;;;;8.40;5.33;;;8.90;99.90;;;;;;5013457;28;20566;-60
2022/11/15 06:53:57;;;;;;;5.80;4.60;;;8.90;99.90;;;;;;5014198;28;20451;-60
2022/11/15 06:56:24;;;;;;;5.10;4.60;;;8.90;99.90;;;;;;5012917;28;20854;-60
2022/11/15 06:58:51;;;;;;;5.80;5.10;;;8.90;99.90;;;;;;5013545;28;20478;-60
2022/11/15 07:01:19;;;;;;;5.23;4.73;;;8.90;99.90;;;;;;5013372;28;20828;-61
2022/11/15 07:03:47;;;;;;;5.03;4.30;;;9.00;99.90;;;;;;5013140;28;20534;-61
2022/11/15 07:06:14;;;;;;;4.30;3.57;;;9.00;99.90;;;;;;5014063;28;20965;-60
2022/11/15 07:08:42;;;;;;;5.60;3.97;;;9.00;99.90;;;;;;5017009;28;20431;-60
2022/11/15 07:11:10;;;;;;;9.20;5.60;;;9.10;99.90;;;;;;5017778;28;20926;-60
2022/11/15 07:13:37;;;;;;;5.90;4.17;;;9.10;99.90;;;;;;5016690;28;20457;-60
2022/11/15 07:16:06;;;;;;;4.20;3.80;;;9.10;99.90;;;;;;5016827;28;20486;-61
2022/11/15 07:18:35;;;;;;;5.47;4.37;;;9.20;99.90;;;;;;5017565;28;20451;-61
2022/11/15 07:21:05;;;;;;;8.40;5.10;;;9.30;99.90;;;;;;5017261;28;21008;-61
2022/11/15 07:23:32;;;;;;;5.03;4.63;;;9.30;99.90;;;;;;5017393;28;20454;-60
2022/11/15 07:26:00;;;;;;;8.60;4.03;;;9.30;99.90;;;;;;5017873;28;20551;-60
2022/11/15 07:28:27;;;;;;;6.27;5.23;;;9.40;99.90;;;;;;5016955;28;20478;-60
2022/11/15 07:30:55;;;;;;;7.43;3.70;;;9.60;99.90;;;;;;5016761;28;20985;-60
2022/11/15 07:33:22;;;;;;;4.60;4.20;;;9.70;99.90;;;;;;5016694;28;20541;-61
2022/11/15 07:35:50;;;;;;;5.23;4.73;;;9.90;99.90;;;;;;5017003;28;21029;-61
2022/11/15 07:38:20;;;;;;;9.70;4.40;;;10.00;99.90;;;;;;5016647;28;20447;-60
2022/11/15 07:40:47;;;;;;;4.70;4.27;;;10.20;99.90;;;;;;5017079;28;20440;-60
2022/11/15 07:43:15;;;;;;;5.07;4.10;;;10.40;99.90;;;;;;5016908;28;20553;-60
2022/11/15 07:45:43;;;;;;;7.70;4.50;;;10.40;99.90;;;;;;5016469;28;21040;-60
2022/11/15 07:48:10;;;;;;;5.67;4.30;;;10.70;99.90;;;;;;5016673;28;20501;-60
2022/11/15 07:50:37;;;;;;;4.37;3.97;;;10.90;99.90;;;;;;5016451;28;20486;-60
2022/11/15 07:53:05;;;;;;;5.50;4.00;;;;;;;;;;5016273;28;20529;-60
2022/11/15 07:55:33;;;;;;;5.00;3.90;;;11.10;99.90;;;;;;5016042;28;20573;-60
2022/11/15 07:58:04;;;;;;;6.80;4.10;;;11.10;99.90;;;;;;5016652;28;20801;-60
2022/11/15 08:00:32;;;;;;;7.70;4.33;;;11.20;99.90;;;;;;5017009;28;20793;-60
2022/11/15 08:03:07;;;;;;;4.43;4.07;;;11.30;99.90;;;;;;5016622;28;20451;-61
2022/11/15 08:05:35;;;;;;;7.00;4.07;;;11.40;99.90;;;;;;5016407;28;20478;-61
2022/11/15 08:08:03;;;;;;;4.50;3.80;;;11.50;99.90;;;;;;5015924;28;20479;-60
2022/11/15 08:10:31;;;;;;;3.60;3.30;;;11.50;99.90;;;;;;5016503;28;20478;-60
2022/11/15 08:13:01;;;;;;;4.70;3.80;;;11.60;99.90;;;;;;5016339;28;20453;-60
2022/11/15 08:15:29;;;;;;;4.67;4.27;;;11.60;99.90;;;;;;5016067;28;20486;-60
2022/11/15 08:17:57;;;;;;;5.93;3.87;;;11.80;99.90;;;;;;5015599;28;20538;-60
2022/11/15 08:20:25;;;;;;;6.50;4.07;;;11.80;99.90;;;;;;5016049;28;20530;-60
2022/11/15 08:22:52;;;;;;;3.73;3.40;;;11.90;99.90;;;;;;5015894;28;20812;-60
2022/11/15 08:25:19;;;;;;;4.60;4.20;;;12.00;99.90;;;;;;5015647;28;20877;-61
2022/11/15 08:27:47;;;;;;;5.50;3.90;;;12.00;99.90;;;;;;5015616;28;20447;-60
2022/11/15 08:30:16;;;;;;;4.63;3.97;;;12.00;99.90;;;;;;5016069;28;20447;-60
2022/11/15 08:32:43;;;;;;;4.03;3.47;;;12.00;99.90;;;;;;5015679;28;20466;-60
2022/11/15 08:35:11;;;;;;;8.17;5.33;;;12.10;99.90;;;;;;5015650;28;20824;-61
2022/11/15 08:37:38;;;;;;;4.00;3.60;;;12.00;99.90;;;;;;5015945;28;20533;-61
2022/11/15 08:40:06;;;;;;;5.80;4.33;;;12.00;99.90;;;;;;5015681;28;20550;-60
2022/11/15 08:42:34;;;;;;;4.33;3.93;;;12.10;99.90;;;;;;5016466;28;20463;-61
2022/11/15 08:45:01;;;;;;;5.70;4.47;;;12.10;99.90;;;;;;5015078;28;20470;-60
2022/11/15 08:47:30;;;;;;;12.10;4.50;;;12.20;99.90;;;;;;5015554;28;20559;-60
2022/11/15 08:49:57;;;;;;;10.90;4.00;;;12.10;99.90;;;;;;5015334;28;20529;-60
2022/11/15 08:52:24;;;;;;;6.23;4.93;;;12.20;99.90;;;;;;5015476;28;20847;-60
2022/11/15 08:54:51;;;;;;;4.20;3.80;;;12.30;99.90;;;;;;5014905;28;20471;-61
2022/11/15 08:57:18;;;;;;;6.20;4.23;;;12.40;99.90;;;;;;5015431;28;20574;-61
2022/11/15 08:59:46;;;;;;;9.50;3.57;;;12.40;99.90;;;;;;5015415;28;20447;-60
2022/11/15 09:02:14;;;;;;;6.03;3.87;;;12.50;99.90;;;;;;5015206;28;21063;-60
2022/11/15 09:04:48;;;;;;;5.30;3.43;;;12.60;99.90;;;;;;5015331;28;20965;-60
2022/11/15 09:07:15;;;;;;;4.90;3.70;;;12.80;99.90;;;;;;5015167;28;20482;-60
2022/11/15 09:09:42;;;;;;;5.10;3.70;;;12.90;99.90;;;;;;5015317;28;20542;-61
2022/11/15 09:12:09;;;;;;;7.77;4.20;;;13.00;99.90;;;;;;5015190;28;20534;-60
2022/11/15 09:14:37;;;;;;;3.90;3.60;;;13.00;99.90;;;;;;5015219;28;20447;-60
2022/11/15 09:17:04;;;;;;;5.47;3.40;;;13.20;99.90;;;;;;5015089;28;20831;-60
2022/11/15 09:19:32;;;;;;;6.97;4.10;;;13.40;99.90;;;;;;5015777;28;20447;-60
2022/11/15 09:22:00;;;;;;;12.50;4.87;;;13.40;99.90;;;;;;5014776;28;20487;-60
2022/11/15 09:24:27;;;;;;;5.63;3.90;;;13.60;99.90;;;;;;5015281;28;20450;-60
2022/11/15 09:26:54;;;;;;;7.30;4.77;;;13.60;99.90;;;;;;5014935;28;20478;-60
2022/11/15 09:29:22;;;;;;;7.73;4.67;;;13.70;99.90;;;;;;5014190;28;20535;-61
2022/11/15 09:31:49;;;;;;;10.17;4.37;;;13.90;99.90;;;;;;5014864;28;20840;-60
2022/11/15 09:34:16;;;;;;;4.30;3.73;;;14.00;99.90;;;;;;5014819;28;20458;-59
2022/11/15 09:36:43;;;;;;;6.07;4.23;;;14.10;99.90;;;;;;5014433;28;20493;-60
2022/11/15 09:39:12;;;;;;;9.90;4.60;;;14.20;99.90;;;;;;5014555;28;20477;-60
2022/11/15 09:41:52;;;;;;;10.87;5.00;;;;;;;;;;5014463;28;20447;-59
2022/11/15 09:44:37;;;;;;;7.43;4.87;;;14.40;99.90;;;;;;5014635;28;20514;-59
2022/11/15 09:47:25;;;;;;;7.57;4.53;;;14.50;99.90;;;;;;5014516;28;20522;-60
2022/11/15 09:49:53;;;;;;;6.87;4.13;;;14.60;99.90;;;;;;5014218;28;20474;-59
2022/11/15 09:52:21;;;;;;;6.30;4.33;;;14.50;99.90;;;;;;5014398;28;20455;-60
2022/11/15 09:54:52;;;;;;;5.83;4.60;;;14.50;99.90;;;;;;5014344;28;20479;-60
2022/11/15 09:57:22;;;;;;;6.37;4.33;;;14.70;99.90;;;;;;5014312;28;20503;-59
2022/11/15 10:00:06;;;;;;;6.60;4.50;;;15.00;99.90;;;;;;5014124;28;20443;-59
2022/11/15 10:02:49;;;;;;;8.70;5.57;;;15.20;99.90;;;;;;5013999;28;20820;-59
2022/11/15 10:05:20;;;;;;;6.30;4.27;;;15.30;99.90;;;;;;5014100;28;20478;-60
2022/11/15 10:07:55;;;;;;;5.20;4.50;;;15.30;99.90;;;;;;5013860;28;20981;-60
2022/11/15 10:10:31;;;;;;;13.13;5.10;;;15.20;99.90;;;;;;5014208;28;20828;-60
2022/11/15 10:12:59;;;;;;;5.10;4.60;;;15.20;99.90;;;;;;5013830;28;20423;-59
2022/11/15 10:15:27;;;;;;;10.63;4.70;;;15.30;99.90;;;;;;5014757;28;20475;-59
2022/11/15 10:18:14;;;;;;;7.40;4.40;;;15.20;99.90;;;;;;5013802;28;20526;-60
2022/11/15 10:20:48;;;;;;;7.03;4.43;;;15.10;99.90;;;;;;5013962;28;20427;-59
2022/11/15 10:23:18;;;;;;;6.77;4.60;;;15.00;99.90;;;;;;5013730;28;20941;-60
2022/11/15 10:25:47;;;;;;;8.90;4.33;;;15.00;99.90;;;;;;5013460;28;20502;-59
2022/11/15 10:28:17;;;;;;;4.50;4.10;;;15.10;99.90;;;;;;5014543;28;20664;-59
2022/11/15 10:30:47;;;;;;;3.70;3.00;;;15.00;99.90;;;;;;5013454;28;20442;-61
2022/11/15 10:33:31;;;;;;;9.53;3.40;;;15.00;99.90;;;;;;5013980;28;20533;-60
2022/11/15 10:36:20;;;;;;;7.40;2.90;;;15.00;99.90;;;;;;5014052;28;20494;-61
2022/11/15 10:38:56;;;;;;;6.63;3.30;;;15.00;99.90;;;;;;5014265;28;20457;-60
2022/11/15 10:41:36;;;;;;;4.13;3.30;;;14.90;99.90;;;;;;5013420;28;21046;-60
2022/11/15 10:44:25;;;;;;;3.90;3.23;;;14.80;99.90;;;;;;5014333;28;20541;-60
2022/11/15 10:47:24;;;;;;;8.97;4.53;;;14.70;99.90;;;;;;5013337;28;20786;-60
2022/11/15 10:49:58;;;;;;;6.20;4.87;;;14.80;99.90;;;;;;5014271;28;20518;-60
2022/11/15 10:52:26;;;;;;;6.83;4.27;;;14.80;99.90;;;;;;5013743;28;20510;-60
2022/11/15 10:54:56;;;;;;;7.10;3.50;;;14.90;99.90;;;;;;5013465;28;20925;-60
2022/11/15 10:57:28;;;;;;;4.57;4.17;;;14.80;99.90;;;;;;5013215;28;20554;-60
2022/11/15 10:59:57;;;;;;;6.23;3.97;;;14.80;99.90;;;;;;5013655;28;20463;-60
2022/11/15 11:02:35;;;;;;;8.03;4.00;;;14.80;99.90;;;;;;5014291;28;20477;-60
2022/11/15 11:05:03;;;;;;;4.60;3.93;;;14.80;99.90;;;;;;5013602;28;20479;-60
2022/11/15 11:07:33;;;;;;;6.80;3.70;;;14.80;99.90;;;;;;5013347;28;20841;-60
2022/11/15 11:10:04;;;;;;;5.50;3.70;;;14.70;99.90;;;;;;5013453;28;20478;-61
2022/11/15 11:12:36;;;;;;;8.27;4.07;;;14.70;99.90;;;;;;5013706;28;20520;-61
2022/11/15 11:15:12;;;;;;;6.90;4.30;;;14.70;99.90;;;;;;5013457;28;20477;-60
2022/11/15 11:18:09;;;;;;;4.57;4.17;;;14.70;99.90;;;;;;5013145;28;20466;-60
2022/11/15 11:20:39;;;;;;;5.27;4.10;;;14.70;99.90;;;;;;5013533;28;20506;-60
2022/11/15 11:23:24;;;;;;;5.10;4.60;;;14.70;99.90;;;;;;5012829;28;20877;-60
2022/11/15 11:26:03;;;;;;;5.23;4.60;;;14.70;99.90;;;;;;5012827;28;21005;-60
2022/11/15 11:28:43;;;;;;;4.30;3.83;;;14.80;99.90;;;;;;5013160;28;20894;-61
2022/11/15 11:31:25;;;;;;;6.60;4.57;;;14.80;99.90;;;;;;5013102;28;20526;-60
2022/11/15 11:34:05;;;;;;;6.80;3.97;;;14.90;99.90;;;;;;5013037;28;20438;-60
2022/11/15 11:36:43;;;;;;;5.47;4.03;;;14.90;99.90;;;;;;5012773;28;20478;-60
2022/11/15 11:39:24;;;;;;;9.67;4.67;;;14.80;99.90;;;;;;5013390;28;20477;-60
2022/11/15 11:42:01;;;;;;;4.90;3.47;;;14.90;99.90;;;;;;5014003;28;20431;-60
2022/11/15 11:44:44;;;;;;;10.00;4.13;;;14.90;99.90;;;;;;5012758;28;20467;-60
2022/11/15 11:47:14;;;;;;;5.13;3.43;;;14.90;99.90;;;;;;5012647;28;20518;-60
2022/11/15 11:49:47;;;;;;;3.47;3.13;;;15.10;99.90;;;;;;5012929;28;20534;-60
2022/11/15 11:52:19;;;;;;;5.63;4.30;;;15.10;99.90;;;;;;5013890;28;20435;-60
2022/11/15 11:54:59;;;;;;;8.67;4.43;;;15.30;99.90;;;;;;5016593;28;20501;-60
2022/11/15 11:57:35;;;;;;;8.20;4.57;;;15.30;99.90;;;;;;5015999;28;20474;-59
2022/11/15 12:00:13;;;;;;;7.33;3.20;;;15.40;99.90;;;;;;5016550;28;20831;-60
2022/11/15 12:02:44;;;;;;;4.33;3.77;;;15.30;99.90;;;;;;5016228;28;20427;-60
2022/11/15 12:05:17;;;;;;;5.00;3.50;;;15.30;99.90;;;;;;5016492;28;20541;-60
2022/11/15 12:07:47;;;;;;;4.17;3.73;;;15.50;99.90;;;;;;5015838;28;20529;-60
2022/11/15 12:10:21;;;;;;;9.83;4.03;;;15.60;99.90;;;;;;5016258;28;20458;-61
2022/11/15 12:12:56;;;;;;;8.77;4.07;;;15.60;99.90;;;;;;5015947;28;20430;-60
2022/11/15 12:15:28;;;;;;;6.37;4.00;;;15.60;99.90;;;;;;5015589;28;20565;-60
2022/11/15 12:17:57;;;;;;;6.77;4.63;;;15.60;99.90;;;;;;5016829;28;20467;-60
2022/11/15 12:20:27;;;;;;;6.00;5.40;;;15.50;99.90;;;;;;5016683;28;20447;-60
2022/11/15 12:23:00;;;;;;;6.73;5.10;;;15.40;99.90;;;;;;5015859;28;20454;-60
2022/11/15 12:25:32;;;;;;;14.03;5.97;;;15.30;99.90;;;;;;5015767;28;20550;-60
2022/11/15 12:28:07;;;;;;;10.57;4.97;;;15.30;99.90;;;;;;5015857;28;20428;-60
2022/11/15 12:30:46;;;;;;;5.50;4.10;;;15.30;99.90;;;;;;5015522;28;20431;-60
2022/11/15 12:33:36;;;;;;;8.20;4.50;;;15.30;99.90;;;;;;5015579;28;20439;-61
2022/11/15 12:36:06;;;;;;;6.20;4.30;;;15.30;99.90;;;;;;5016046;28;20976;-60
2022/11/15 12:38:58;;;;;;;5.20;4.63;;;15.30;99.90;;;;;;5015159;28;20489;-59
2022/11/15 12:41:28;;;;;;;8.33;4.87;;;15.20;99.90;;;;;;4996578;28;20459;-60
2022/11/15 12:43:56;;;;;;;5.60;4.77;;;15.20;99.90;;;;;;5015474;28;20450;-60
2022/11/15 12:47:02;;;;;;;6.53;4.77;;;15.20;99.90;;;;;;5015305;28;20467;-60
2022/11/15 12:49:48;;;;;;;7.37;4.87;;;15.20;99.90;;;;;;5015598;28;20473;-60
2022/11/15 12:52:16;;;;;;;6.07;4.87;;;15.20;99.90;;;;;;5014810;28;20435;-60
2022/11/15 12:55:03;;;;;;;7.77;5.13;;;15.10;99.90;;;;;;5014937;28;20467;-59
2022/11/15 12:57:39;;;;;;;6.63;4.70;;;15.10;99.90;;;;;;5015134;28;20510;-60
2022/11/15 13:00:42;;;;;;;7.10;4.87;;;15.10;99.90;;;;;;5015300;28;20437;-60
2022/11/15 13:03:25;;;;;;;5.80;4.50;;;15.10;99.90;;;;;;4973400;28;21012;-61
2022/11/15 13:06:31;;;;;;;6.20;5.00;;;15.20;99.90;;;;;;5014543;28;20566;-60
2022/11/15 13:08:58;;;;;;;10.17;5.30;;;15.20;99.90;;;;;;5015032;28;20769;-60
2022/11/15 13:11:45;;;;;;;9.37;5.07;;;15.00;99.90;;;;;;5014856;28;20930;-60
2022/11/15 13:14:47;;;;;;;7.20;4.70;;;14.90;99.90;;;;;;5014843;28;20451;-61
2022/11/15 13:17:34;;;;;;;10.03;4.57;;;15.00;99.90;;;;;;5014702;28;20525;-60
2022/11/15 13:20:19;;;;;;;7.40;3.90;;;14.90;99.90;;;;;;5014588;28;20423;-60
2022/11/15 13:22:56;;;;;;;8.30;3.60;;;14.90;99.90;;;;;;5014951;28;20424;-60
2022/11/15 13:25:48;;;;;;;5.90;3.43;;;14.80;99.90;;;;;;5014681;28;20466;-60
2022/11/15 13:28:24;;;;;;;5.00;3.53;;;14.70;99.90;;;;;;4977805;28;20447;-60